Time,TemperatureF,DewpointF,PressureIn,WindDirection,WindDirectionDegrees,WindSpeedMPH,WindSpeedGustMPH,Humidity,HourlyPrecipIn,Conditions,Clouds,dailyrainin,SolarRadiationWatts/m^2,SoftwareType,DateUTC
2013-08-16 00:02:00,65.1,59.1,30.16,NNE,27,1.0,1.0,81,0.00,,,0.00,0,Wunderground v.1.15,2013-08-16 04:02:00,
2013-08-16 00:06:00,64.9,58.9,30.16,NNE,27,1.0,1.0,81,0.00,,,0.00,0,Wunderground v.1.15,2013-08-16 04:06:00,
2013-08-16 00:08:00,64.8,58.8,30.16,NNE,27,1.0,1.0,81,0.00,,,0.00,0,Wunderground v.1.15,2013-08-16 04:08:00,
2013-08-16 00:10:00,64.7,58.7,30.16,NNE,27,1.0,1.0,81,0.00,,,0.00,0,Wunderground v.1.15,2013-08-16 04:10:00,
2013-08-16 00:16:00,64.4,58.4,30.16,NNE,27,2.0,4.0,81,0.00,,,0.00,0,Wunderground v.1.15,2013-08-16 04:16:00,
2013-08-16 00:22:00,64.2,58.2,30.16,NNE,27,2.0,2.0,81,0.00,,,0.00,0,Wunderground v.1.15,2013-08-16 04:22:00,
2013-08-16 00:28:00,64.2,58.2,30.16,NNE,27,2.0,3.0,81,0.00,,,0.00,0,Wunderground v.1.15,2013-08-16 04:28:00,
2013-08-16 00:36:00,64.2,57.9,30.16,NNE,27,2.0,2.0,80,0.00,,,0.00,0,Wunderground v.1.15,2013-08-16 04:36:00,
2013-08-16 00:42:00,64.0,58.1,30.16,NNE,27,1.0,1.0,81,0.00,,,0.00,0,Wunderground v.1.15,2013-08-16 04:42:00,
2013-08-16 00:48:00,63.8,57.9,30.15,NNE,27,1.0,2.0,81,0.00,,,0.00,0,Wunderground v.1.15,2013-08-16 04:48:00,
2013-08-16 00:54:00,63.7,57.8,30.16,NNE,27,1.0,2.0,81,0.00,,,0.00,0,Wunderground v.1.15,2013-08-16 04:54:00,
2013-08-16 01:00:00,63.6,57.7,30.15,NNE,27,2.0,2.0,81,0.00,,,0.00,0,Wunderground v.1.15,2013-08-16 05:00:00,
2013-08-16 01:06:00,63.6,57.7,30.15,NNE,27,2.0,2.0,81,0.00,,,0.00,0,Wunderground v.1.15,2013-08-16 05:06:00,
2013-08-16 01:08:00,63.6,57.7,30.15,NNE,27,2.0,2.0,81,0.00,,,0.00,0,Wunderground v.1.15,2013-08-16 05:08:00,
2013-08-16 01:14:00,63.6,57.7,30.15,NNE,27,1.0,2.0,81,0.00,,,0.00,0,Wunderground v.1.15,2013-08-16 05:14:00,
2013-08-16 01:20:00,63.4,57.5,30.15,NNE,27,1.0,2.0,81,0.00,,,0.00,0,Wunderground v.1.15,2013-08-16 05:20:00,
2013-08-16 01:26:00,63.2,57.3,30.15,NNE,27,2.0,2.0,81,0.00,,,0.00,0,Wunderground v.1.15,2013-08-16 05:26:00,
2013-08-16 01:32:00,63.1,57.2,30.15,NNE,27,2.0,2.0,81,0.00,,,0.00,0,Wunderground v.1.15,2013-08-16 05:32:00,
2013-08-16 01:38:00,62.9,57.0,30.15,NNE,27,2.0,2.0,81,0.00,,,0.00,0,Wunderground v.1.15,2013-08-16 05:38:00,
2013-08-16 01:46:00,62.8,56.9,30.15,NNE,27,2.0,3.0,81,0.00,,,0.00,0,Wunderground v.1.15,2013-08-16 05:46:00,
2013-08-16 01:52:00,62.8,56.5,30.15,NNE,27,2.0,2.0,80,0.00,,,0.00,0,Wunderground v.1.15,2013-08-16 05:52:00,
2013-08-16 01:58:00,62.8,56.5,30.15,NNE,27,2.0,2.0,80,0.00,,,0.00,0,Wunderground v.1.15,2013-08-16 05:58:00,
2013-08-16 02:04:00,62.8,56.5,30.15,NNE,27,2.0,2.0,80,0.00,,,0.00,0,Wunderground v.1.15,2013-08-16 06:04:00,
2013-08-16 02:10:00,62.8,56.2,30.14,NNE,27,2.0,2.0,79,0.00,,,0.00,0,Wunderground v.1.15,2013-08-16 06:10:00,
2013-08-16 02:16:00,62.9,56.3,30.14,NNE,27,2.0,3.0,79,0.00,,,0.00,0,Wunderground v.1.15,2013-08-16 06:16:00,
2013-08-16 02:22:00,62.9,56.3,30.14,NNE,27,2.0,2.0,79,0.00,,,0.00,0,Wunderground v.1.15,2013-08-16 06:22:00,
2013-08-16 02:28:00,62.8,56.2,30.14,NNE,27,2.0,2.0,79,0.00,,,0.00,0,Wunderground v.1.15,2013-08-16 06:28:00,
2013-08-16 02:34:00,62.5,56.2,30.14,NNE,27,2.0,2.0,80,0.00,,,0.00,0,Wunderground v.1.15,2013-08-16 06:34:00,
2013-08-16 02:40:00,62.2,56.3,30.14,NNE,27,3.0,3.0,81,0.00,,,0.00,0,Wunderground v.1.15,2013-08-16 06:40:00,
2013-08-16 02:46:00,62.0,56.1,30.14,NNE,27,3.0,3.0,81,0.00,,,0.00,0,Wunderground v.1.15,2013-08-16 06:46:00,
2013-08-16 02:52:00,61.8,55.9,30.13,NNE,27,3.0,4.0,81,0.00,,,0.00,0,Wunderground v.1.15,2013-08-16 06:52:00,
2013-08-16 02:58:00,61.8,56.2,30.14,NNE,27,3.0,4.0,82,0.00,,,0.00,0,Wunderground v.1.15,2013-08-16 06:58:00,
2013-08-16 03:04:00,61.7,56.1,30.13,NNE,27,3.0,4.0,82,0.00,,,0.00,0,Wunderground v.1.15,2013-08-16 07:04:00,
2013-08-16 03:10:00,61.6,56.0,30.13,NNE,27,3.0,3.0,82,0.00,,,0.00,0,Wunderground v.1.15,2013-08-16 07:10:00,
2013-08-16 03:16:00,61.5,55.6,30.14,NNE,27,3.0,3.0,81,0.00,,,0.00,0,Wunderground v.1.15,2013-08-16 07:16:00,
2013-08-16 03:22:00,61.5,55.6,30.14,NNE,27,3.0,3.0,81,0.00,,,0.00,0,Wunderground v.1.15,2013-08-16 07:22:00,
2013-08-16 03:28:00,61.5,55.6,30.13,NNE,27,3.0,3.0,81,0.00,,,0.00,0,Wunderground v.1.15,2013-08-16 07:28:00,
2013-08-16 03:37:00,61.4,55.5,30.13,NNE,27,3.0,3.0,81,0.00,,,0.00,0,Wunderground v.1.15,2013-08-16 07:37:00,
2013-08-16 03:42:00,61.3,55.8,30.13,NNE,27,3.0,3.0,82,0.00,,,0.00,0,Wunderground v.1.15,2013-08-16 07:42:00,
2013-08-16 03:48:00,61.2,55.7,30.14,NNE,27,3.0,3.0,82,0.00,,,0.00,0,Wunderground v.1.15,2013-08-16 07:48:00,
2013-08-16 03:56:00,61.1,55.6,30.14,NNE,27,3.0,4.0,82,0.00,,,0.00,0,Wunderground v.1.15,2013-08-16 07:56:00,
2013-08-16 04:02:00,61.1,55.6,30.14,NNE,27,3.0,4.0,82,0.00,,,0.00,0,Wunderground v.1.15,2013-08-16 08:02:00,
2013-08-16 04:08:00,61.2,55.7,30.14,NNE,27,3.0,4.0,82,0.00,,,0.00,0,Wunderground v.1.15,2013-08-16 08:08:00,
2013-08-16 04:16:00,61.2,55.7,30.13,NNE,27,3.0,4.0,82,0.00,,,0.00,0,Wunderground v.1.15,2013-08-16 08:16:00,
2013-08-16 04:22:00,61.2,55.7,30.14,NNE,27,3.0,3.0,82,0.00,,,0.00,0,Wunderground v.1.15,2013-08-16 08:22:00,
2013-08-16 04:28:00,61.1,55.6,30.14,NNE,27,3.0,3.0,82,0.00,,,0.00,0,Wunderground v.1.15,2013-08-16 08:28:00,
2013-08-16 04:34:00,61.1,55.6,30.14,NNE,27,3.0,4.0,82,0.00,,,0.00,0,Wunderground v.1.15,2013-08-16 08:34:00,
2013-08-16 04:40:00,61.0,55.5,30.14,NNE,27,3.0,4.0,82,0.00,,,0.00,0,Wunderground v.1.15,2013-08-16 08:40:00,
2013-08-16 04:46:00,60.9,55.4,30.14,NNE,27,3.0,4.0,82,0.00,,,0.00,0,Wunderground v.1.15,2013-08-16 08:46:00,
2013-08-16 04:52:00,60.9,55.4,30.14,NNE,27,3.0,3.0,82,0.00,,,0.00,0,Wunderground v.1.15,2013-08-16 08:52:00,
2013-08-16 04:58:00,61.0,55.5,30.13,NNE,27,3.0,3.0,82,0.00,,,0.00,0,Wunderground v.1.15,2013-08-16 08:58:00,
2013-08-16 05:04:00,61.0,55.5,30.13,NNE,27,3.0,3.0,82,0.00,,,0.00,0,Wunderground v.1.15,2013-08-16 09:04:00,
2013-08-16 05:10:00,61.0,55.5,30.13,NNE,27,3.0,3.0,82,0.00,,,0.00,0,Wunderground v.1.15,2013-08-16 09:10:00,
2013-08-16 05:16:00,60.9,55.4,30.13,NNE,27,2.0,3.0,82,0.00,,,0.00,0,Wunderground v.1.15,2013-08-16 09:16:00,
2013-08-16 05:22:00,60.9,55.4,30.13,NNE,27,3.0,3.0,82,0.00,,,0.00,0,Wunderground v.1.15,2013-08-16 09:22:00,
2013-08-16 05:28:00,60.9,55.4,30.13,NNE,27,3.0,3.0,82,0.00,,,0.00,0,Wunderground v.1.15,2013-08-16 09:28:00,
2013-08-16 05:34:00,60.9,55.4,30.13,NNE,27,3.0,3.0,82,0.00,,,0.00,0,Wunderground v.1.15,2013-08-16 09:34:00,
2013-08-16 05:40:00,61.0,55.5,30.13,NNE,27,3.0,3.0,82,0.00,,,0.00,0,Wunderground v.1.15,2013-08-16 09:40:00,
2013-08-16 05:46:00,60.9,55.4,30.13,NNE,27,3.0,3.0,82,0.00,,,0.00,0,Wunderground v.1.15,2013-08-16 09:46:00,
2013-08-16 05:52:00,60.9,55.4,30.14,NNE,27,3.0,3.0,82,0.00,,,0.00,0,Wunderground v.1.15,2013-08-16 09:52:00,
2013-08-16 05:58:00,60.8,55.3,30.13,NNE,27,2.0,3.0,82,0.00,,,0.00,0,Wunderground v.1.15,2013-08-16 09:58:00,
2013-08-16 06:04:00,60.8,55.3,30.13,NNE,27,2.0,3.0,82,0.00,,,0.00,0,Wunderground v.1.15,2013-08-16 10:04:00,
2013-08-16 06:10:00,60.8,54.9,30.13,NNE,27,2.0,2.0,81,0.00,,,0.00,0,Wunderground v.1.15,2013-08-16 10:10:00,
2013-08-16 06:16:00,60.8,54.9,30.14,NNE,27,2.0,3.0,81,0.00,,,0.00,5,Wunderground v.1.15,2013-08-16 10:16:00,
2013-08-16 06:22:00,60.9,55.0,30.14,NNE,27,2.0,2.0,81,0.00,,,0.00,9,Wunderground v.1.15,2013-08-16 10:22:00,
2013-08-16 06:28:00,60.9,55.0,30.14,NNE,27,2.0,2.0,81,0.00,,,0.00,12,Wunderground v.1.15,2013-08-16 10:28:00,
2013-08-16 06:34:00,61.0,55.1,30.14,NNE,27,2.0,3.0,81,0.00,,,0.00,16,Wunderground v.1.15,2013-08-16 10:34:00,
2013-08-16 06:40:00,61.2,55.0,30.14,NNE,27,2.0,3.0,80,0.00,,,0.00,23,Wunderground v.1.15,2013-08-16 10:40:00,
2013-08-16 06:46:00,61.4,55.2,30.15,NNE,27,2.0,3.0,80,0.00,,,0.00,33,Wunderground v.1.15,2013-08-16 10:46:00,
2013-08-16 06:52:00,61.6,55.0,30.14,NNE,27,2.0,2.0,79,0.00,,,0.00,47,Wunderground v.1.15,2013-08-16 10:52:00,
2013-08-16 06:58:00,61.9,55.3,30.15,NNE,27,2.0,3.0,79,0.00,,,0.00,62,Wunderground v.1.15,2013-08-16 10:58:00,
2013-08-16 07:04:00,62.2,55.6,30.15,NNE,27,2.0,3.0,79,0.00,,,0.00,79,Wunderground v.1.15,2013-08-16 11:04:00,
2013-08-16 07:10:00,62.5,55.5,30.15,NNE,27,2.0,3.0,78,0.00,,,0.00,98,Wunderground v.1.15,2013-08-16 11:10:00,
2013-08-16 07:16:00,62.9,55.9,30.15,NNE,27,2.0,3.0,78,0.00,,,0.00,120,Wunderground v.1.15,2013-08-16 11:16:00,
2013-08-16 07:22:00,63.2,56.2,30.15,NNE,27,3.0,3.0,78,0.00,,,0.00,142,Wunderground v.1.15,2013-08-16 11:22:00,
2013-08-16 07:28:00,63.6,56.3,30.15,NNE,27,2.0,3.0,77,0.00,,,0.00,165,Wunderground v.1.15,2013-08-16 11:28:00,
2013-08-16 07:34:00,64.0,56.3,30.15,NNE,27,2.0,2.0,76,0.00,,,0.00,188,Wunderground v.1.15,2013-08-16 11:34:00,
2013-08-16 07:40:00,64.5,56.0,30.15,NNE,27,3.0,4.0,74,0.00,,,0.00,209,Wunderground v.1.15,2013-08-16 11:40:00,
2013-08-16 07:46:00,65.0,55.8,30.15,NNE,27,3.0,5.0,72,0.00,,,0.00,229,Wunderground v.1.15,2013-08-16 11:46:00,
2013-08-16 07:52:00,65.4,56.1,30.15,NNE,27,3.0,3.0,72,0.00,,,0.00,248,Wunderground v.1.15,2013-08-16 11:52:00,
2013-08-16 07:58:00,65.8,56.5,30.16,NNE,27,3.0,3.0,72,0.00,,,0.00,265,Wunderground v.1.15,2013-08-16 11:58:00,
2013-08-16 08:04:00,66.3,57.4,30.15,NNE,27,2.0,3.0,73,0.00,,,0.00,283,Wunderground v.1.15,2013-08-16 12:04:00,
2013-08-16 08:10:00,67.0,58.8,30.16,NNE,27,2.0,2.0,75,0.00,,,0.00,301,Wunderground v.1.15,2013-08-16 12:10:00,
2013-08-16 08:16:00,67.6,59.8,30.16,NNE,27,2.0,2.0,76,0.00,,,0.00,318,Wunderground v.1.15,2013-08-16 12:16:00,
2013-08-16 08:22:00,68.2,60.3,30.16,NNE,27,1.0,2.0,76,0.00,,,0.00,339,Wunderground v.1.15,2013-08-16 12:22:00,
2013-08-16 08:28:00,68.6,60.7,30.16,NNE,27,2.0,2.0,76,0.00,,,0.00,359,Wunderground v.1.15,2013-08-16 12:28:00,
2013-08-16 08:34:00,69.2,61.3,30.16,NNE,27,2.0,5.0,76,0.00,,,0.00,381,Wunderground v.1.15,2013-08-16 12:34:00,
2013-08-16 08:40:00,69.7,61.4,30.16,NNE,27,3.0,3.0,75,0.00,,,0.00,396,Wunderground v.1.15,2013-08-16 12:40:00,
2013-08-16 08:46:00,70.3,60.8,30.16,NNE,27,3.0,7.0,72,0.00,,,0.00,413,Wunderground v.1.15,2013-08-16 12:46:00,
2013-08-16 08:52:00,70.8,60.9,30.16,NNE,27,4.0,6.0,71,0.00,,,0.00,436,Wunderground v.1.15,2013-08-16 12:52:00,
2013-08-16 08:58:00,71.2,61.3,30.16,NNE,27,4.0,6.0,71,0.00,,,0.00,450,Wunderground v.1.15,2013-08-16 12:58:00,
2013-08-16 09:04:00,71.4,60.7,30.16,NNE,22,5.0,7.0,69,0.00,,,0.00,469,Wunderground v.1.15,2013-08-16 13:04:00,
2013-08-16 09:10:00,71.4,60.7,30.16,NNE,17,7.0,7.0,69,0.00,,,0.00,490,Wunderground v.1.15,2013-08-16 13:10:00,
2013-08-16 09:16:00,71.4,60.3,30.16,NNE,13,8.0,11.0,68,0.00,,,0.00,504,Wunderground v.1.15,2013-08-16 13:16:00,
2013-08-16 09:22:00,71.4,60.7,30.16,NNE,16,8.0,10.0,69,0.00,,,0.00,515,Wunderground v.1.15,2013-08-16 13:22:00,
2013-08-16 09:28:00,71.5,60.8,30.16,North,10,7.0,10.0,69,0.00,,,0.00,547,Wunderground v.1.15,2013-08-16 13:28:00,
2013-08-16 09:34:00,71.7,61.4,30.16,North,5,8.0,8.0,70,0.00,,,0.00,566,Wunderground v.1.15,2013-08-16 13:34:00,
2013-08-16 09:40:00,71.8,61.5,30.16,NNE,13,8.0,8.0,70,0.00,,,0.00,580,Wunderground v.1.15,2013-08-16 13:40:00,
2013-08-16 09:46:00,72.2,61.9,30.16,NNE,15,7.0,10.0,70,0.00,,,0.00,596,Wunderground v.1.15,2013-08-16 13:46:00,
2013-08-16 09:52:00,72.2,62.3,30.16,NNE,23,8.0,9.0,71,0.00,,,0.00,613,Wunderground v.1.15,2013-08-16 13:52:00,
2013-08-16 09:58:00,72.5,63.0,30.16,North,11,7.0,9.0,72,0.00,,,0.00,629,Wunderground v.1.15,2013-08-16 13:58:00,
2013-08-16 10:04:00,72.4,62.1,30.16,NNE,16,8.0,8.0,70,0.00,,,0.00,649,Wunderground v.1.15,2013-08-16 14:04:00,
2013-08-16 10:10:00,72.6,62.3,30.16,North,11,8.0,9.0,70,0.00,,,0.00,649,Wunderground v.1.15,2013-08-16 14:10:00,
2013-08-16 10:16:00,72.9,62.1,30.16,NNE,14,8.0,9.0,69,0.00,,,0.00,671,Wunderground v.1.15,2013-08-16 14:16:00,
2013-08-16 10:22:00,73.2,62.4,30.17,NNE,30,7.0,10.0,69,0.00,,,0.00,686,Wunderground v.1.15,2013-08-16 14:22:00,
2013-08-16 10:28:00,73.8,65.0,30.17,ENE,57,6.0,10.0,74,0.00,,,0.00,705,Wunderground v.1.15,2013-08-16 14:28:00,
2013-08-16 10:34:00,74.0,66.0,30.17,NE,56,6.0,7.0,76,0.00,,,0.00,710,Wunderground v.1.15,2013-08-16 14:34:00,
2013-08-16 10:40:00,73.9,65.9,30.17,ENE,58,5.0,7.0,76,0.00,,,0.00,726,Wunderground v.1.15,2013-08-16 14:40:00,
2013-08-16 10:46:00,73.8,65.4,30.17,ENE,59,5.0,7.0,75,0.00,,,0.00,742,Wunderground v.1.15,2013-08-16 14:46:00,
2013-08-16 10:52:00,74.0,65.6,30.17,ENE,59,5.0,5.0,75,0.00,,,0.00,749,Wunderground v.1.15,2013-08-16 14:52:00,
2013-08-16 10:58:00,74.1,65.3,30.17,ENE,59,5.0,5.0,74,0.00,,,0.00,687,Wunderground v.1.15,2013-08-16 14:58:00,
2013-08-16 11:04:00,74.3,65.1,30.18,ENE,60,5.0,7.0,73,0.00,,,0.00,777,Wunderground v.1.15,2013-08-16 15:04:00,
2013-08-16 11:10:00,74.6,64.6,30.18,ENE,60,4.0,5.0,71,0.00,,,0.00,786,Wunderground v.1.15,2013-08-16 15:10:00,
2013-08-16 11:16:00,74.5,64.5,30.18,ENE,60,5.0,7.0,71,0.00,,,0.00,798,Wunderground v.1.15,2013-08-16 15:16:00,
2013-08-16 11:22:00,74.5,63.2,30.18,ENE,60,5.0,7.0,68,0.00,,,0.00,788,Wunderground v.1.15,2013-08-16 15:22:00,
2013-08-16 11:28:00,75.0,63.7,30.17,ENE,60,5.0,7.0,68,0.00,,,0.00,717,Wunderground v.1.15,2013-08-16 15:28:00,
2013-08-16 11:34:00,75.1,63.4,30.18,ENE,60,5.0,7.0,67,0.00,,,0.00,824,Wunderground v.1.15,2013-08-16 15:34:00,
2013-08-16 11:40:00,75.1,63.8,30.18,ENE,60,5.0,7.0,68,0.00,,,0.00,838,Wunderground v.1.15,2013-08-16 15:40:00,
2013-08-16 11:46:00,75.2,63.1,30.18,ENE,60,5.0,8.0,66,0.00,,,0.00,847,Wunderground v.1.15,2013-08-16 15:46:00,
2013-08-16 11:52:00,75.5,60.6,30.18,ENE,61,5.0,8.0,60,0.00,,,0.00,775,Wunderground v.1.15,2013-08-16 15:52:00,
2013-08-16 11:58:00,75.7,59.4,30.18,ENE,61,5.0,8.0,57,0.00,,,0.00,863,Wunderground v.1.15,2013-08-16 15:58:00,
2013-08-16 12:04:00,75.5,59.7,30.18,ENE,65,5.0,8.0,58,0.00,,,0.00,867,Wunderground v.1.15,2013-08-16 16:04:00,
2013-08-16 12:10:00,75.7,58.9,30.18,ENE,70,7.0,8.0,56,0.00,,,0.00,865,Wunderground v.1.15,2013-08-16 16:10:00,
2013-08-16 12:16:00,75.6,59.3,30.18,ENE,70,6.0,8.0,57,0.00,,,0.00,939,Wunderground v.1.15,2013-08-16 16:16:00,
2013-08-16 12:22:00,75.8,60.0,30.18,ENE,70,5.0,8.0,58,0.00,,,0.00,919,Wunderground v.1.15,2013-08-16 16:22:00,
2013-08-16 12:28:00,76.1,59.8,30.18,ENE,67,6.0,9.0,57,0.00,,,0.00,905,Wunderground v.1.15,2013-08-16 16:28:00,
2013-08-16 12:34:00,75.9,60.1,30.18,ENE,68,7.0,8.0,58,0.00,,,0.00,830,Wunderground v.1.15,2013-08-16 16:34:00,
2013-08-16 12:40:00,75.8,60.0,30.18,ENE,68,7.0,7.0,58,0.00,,,0.00,932,Wunderground v.1.15,2013-08-16 16:40:00,
2013-08-16 12:46:00,75.6,60.7,30.18,ENE,66,7.0,9.0,60,0.00,,,0.00,578,Wunderground v.1.15,2013-08-16 16:46:00,
2013-08-16 12:52:00,75.1,60.3,30.17,ENE,68,7.0,8.0,60,0.00,,,0.00,531,Wunderground v.1.15,2013-08-16 16:52:00,
2013-08-16 12:58:00,74.9,61.0,30.18,ENE,71,7.0,8.0,62,0.00,,,0.00,520,Wunderground v.1.15,2013-08-16 16:58:00,
2013-08-16 13:04:00,74.8,60.9,30.18,ENE,70,7.0,7.0,62,0.00,,,0.00,494,Wunderground v.1.15,2013-08-16 17:04:00,
2013-08-16 13:10:00,74.9,61.5,30.18,ENE,70,7.0,8.0,63,0.00,,,0.00,661,Wunderground v.1.15,2013-08-16 17:10:00,
2013-08-16 13:16:00,74.8,61.4,30.17,ENE,70,7.0,9.0,63,0.00,,,0.00,455,Wunderground v.1.15,2013-08-16 17:16:00,
2013-08-16 13:22:00,75.0,61.5,30.17,ENE,69,7.0,7.0,63,0.00,,,0.00,410,Wunderground v.1.15,2013-08-16 17:22:00,
2013-08-16 13:28:00,74.8,61.8,30.17,ENE,70,6.0,8.0,64,0.00,,,0.00,373,Wunderground v.1.15,2013-08-16 17:28:00,
2013-08-16 13:34:00,74.4,60.1,30.17,ENE,69,7.0,8.0,61,0.00,,,0.00,299,Wunderground v.1.15,2013-08-16 17:34:00,
2013-08-16 13:40:00,74.1,60.7,30.17,ENE,71,6.0,7.0,63,0.00,,,0.00,448,Wunderground v.1.15,2013-08-16 17:40:00,
2013-08-16 13:46:00,74.2,60.8,30.18,ENE,71,6.0,8.0,63,0.00,,,0.00,779,Wunderground v.1.15,2013-08-16 17:46:00,
2013-08-16 13:52:00,74.6,60.3,30.17,ENE,71,6.0,8.0,61,0.00,,,0.00,779,Wunderground v.1.15,2013-08-16 17:52:00,
2013-08-16 13:58:00,75.1,60.7,30.17,ENE,71,6.0,8.0,61,0.00,,,0.00,715,Wunderground v.1.15,2013-08-16 17:58:00,
2013-08-16 14:04:00,75.1,60.3,30.17,ENE,75,7.0,9.0,60,0.00,,,0.00,803,Wunderground v.1.15,2013-08-16 18:04:00,
2013-08-16 14:10:00,75.2,60.8,30.17,ENE,76,7.0,7.0,61,0.00,,,0.00,838,Wunderground v.1.15,2013-08-16 18:10:00,
2013-08-16 14:16:00,75.2,60.8,30.17,East,83,7.0,8.0,61,0.00,,,0.00,603,Wunderground v.1.15,2013-08-16 18:16:00,
2013-08-16 14:22:00,75.1,61.2,30.17,ENE,76,7.0,7.0,62,0.00,,,0.00,759,Wunderground v.1.15,2013-08-16 18:22:00,
2013-08-16 14:28:00,75.6,61.7,30.17,East,80,7.0,9.0,62,0.00,,,0.00,939,Wunderground v.1.15,2013-08-16 18:28:00,
2013-08-16 14:34:00,75.3,61.4,30.16,East,90,7.0,8.0,62,0.00,,,0.00,754,Wunderground v.1.15,2013-08-16 18:34:00,
2013-08-16 14:40:00,75.2,61.7,30.16,East,86,8.0,8.0,63,0.00,,,0.00,816,Wunderground v.1.15,2013-08-16 18:40:00,
2013-08-16 14:46:00,75.1,61.6,30.16,East,82,8.0,8.0,63,0.00,,,0.00,541,Wunderground v.1.15,2013-08-16 18:46:00,
2013-08-16 14:52:00,75.0,62.0,30.16,East,85,7.0,9.0,64,0.00,,,0.00,684,Wunderground v.1.15,2013-08-16 18:52:00,
2013-08-16 14:58:00,75.3,61.8,30.16,East,84,8.0,9.0,63,0.00,,,0.00,835,Wunderground v.1.15,2013-08-16 18:58:00,
2013-08-16 15:04:00,75.2,62.2,30.16,East,82,8.0,9.0,64,0.00,,,0.00,819,Wunderground v.1.15,2013-08-16 19:04:00,
2013-08-16 15:10:00,75.1,62.1,30.16,East,82,8.0,8.0,64,0.00,,,0.00,923,Wunderground v.1.15,2013-08-16 19:10:00,
2013-08-16 15:16:00,75.2,62.6,30.16,East,82,7.0,8.0,65,0.00,,,0.00,756,Wunderground v.1.15,2013-08-16 19:16:00,
2013-08-16 15:22:00,75.2,61.7,30.15,East,82,7.0,7.0,63,0.00,,,0.00,490,Wunderground v.1.15,2013-08-16 19:22:00,
2013-08-16 15:28:00,75.2,62.2,30.15,East,82,7.0,8.0,64,0.00,,,0.00,346,Wunderground v.1.15,2013-08-16 19:28:00,
2013-08-16 15:34:00,74.7,61.7,30.15,East,82,7.0,9.0,64,0.00,,,0.00,330,Wunderground v.1.15,2013-08-16 19:34:00,
2013-08-16 15:40:00,74.3,62.2,30.16,East,81,7.0,9.0,66,0.00,,,0.00,366,Wunderground v.1.15,2013-08-16 19:40:00,
2013-08-16 15:46:00,73.9,61.8,30.16,East,81,8.0,10.0,66,0.00,,,0.00,327,Wunderground v.1.15,2013-08-16 19:46:00,
2013-08-16 15:52:00,73.7,62.1,30.16,East,81,7.0,8.0,67,0.00,,,0.00,343,Wunderground v.1.15,2013-08-16 19:52:00,
2013-08-16 15:58:00,73.5,62.3,30.16,East,81,7.0,8.0,68,0.00,,,0.00,388,Wunderground v.1.15,2013-08-16 19:58:00,
2013-08-16 16:06:00,73.8,63.0,30.15,East,82,6.0,8.0,69,0.00,,,0.00,362,Wunderground v.1.15,2013-08-16 20:06:00,
2013-08-16 16:12:00,73.8,62.2,30.15,East,82,7.0,7.0,67,0.00,,,0.00,422,Wunderground v.1.15,2013-08-16 20:12:00,
2013-08-16 16:18:00,73.9,62.7,30.15,East,80,7.0,8.0,68,0.00,,,0.00,378,Wunderground v.1.15,2013-08-16 20:18:00,
2013-08-16 16:26:00,73.9,63.1,30.15,East,80,7.0,8.0,69,0.00,,,0.00,308,Wunderground v.1.15,2013-08-16 20:26:00,
2013-08-16 16:32:00,73.8,63.0,30.15,East,80,7.0,8.0,69,0.00,,,0.00,276,Wunderground v.1.15,2013-08-16 20:32:00,
2013-08-16 16:38:00,73.4,62.6,30.15,East,80,7.0,8.0,69,0.00,,,0.00,255,Wunderground v.1.15,2013-08-16 20:38:00,
2013-08-16 16:46:00,73.1,62.7,30.16,East,80,7.0,8.0,70,0.00,,,0.00,257,Wunderground v.1.15,2013-08-16 20:46:00,
2013-08-16 16:52:00,72.9,62.5,30.16,East,80,7.0,7.0,70,0.00,,,0.00,253,Wunderground v.1.15,2013-08-16 20:52:00,
2013-08-16 16:58:00,72.7,62.3,30.16,East,80,7.0,8.0,70,0.00,,,0.00,234,Wunderground v.1.15,2013-08-16 20:58:00,
2013-08-16 17:04:00,72.8,62.8,30.16,East,81,7.0,8.0,71,0.00,,,0.00,227,Wunderground v.1.15,2013-08-16 21:04:00,
2013-08-16 17:10:00,72.7,62.8,30.15,East,88,7.0,10.0,71,0.00,,,0.00,230,Wunderground v.1.15,2013-08-16 21:10:00,
2013-08-16 17:16:00,72.7,62.3,30.16,East,88,7.0,10.0,70,0.00,,,0.00,214,Wunderground v.1.15,2013-08-16 21:16:00,
2013-08-16 17:22:00,72.7,62.3,30.16,East,88,7.0,8.0,70,0.00,,,0.00,192,Wunderground v.1.15,2013-08-16 21:22:00,
2013-08-16 17:28:00,72.7,61.9,30.16,East,88,8.0,9.0,69,0.00,,,0.00,172,Wunderground v.1.15,2013-08-16 21:28:00,
2013-08-16 17:36:00,72.6,61.8,30.16,East,87,7.0,8.0,69,0.00,,,0.00,162,Wunderground v.1.15,2013-08-16 21:36:00,
2013-08-16 17:42:00,72.6,61.4,30.17,East,88,7.0,7.0,68,0.00,,,0.00,155,Wunderground v.1.15,2013-08-16 21:42:00,
2013-08-16 17:48:00,72.5,61.7,30.16,East,89,6.0,9.0,69,0.00,,,0.00,148,Wunderground v.1.15,2013-08-16 21:48:00,
2013-08-16 17:54:00,72.5,62.2,30.16,East,89,6.0,7.0,70,0.00,,,0.00,142,Wunderground v.1.15,2013-08-16 21:54:00,
2013-08-16 18:00:00,72.5,62.6,30.16,East,90,7.0,7.0,71,0.00,,,0.00,135,Wunderground v.1.15,2013-08-16 22:00:00,
2013-08-16 18:06:00,72.4,61.7,30.16,East,93,7.0,8.0,69,0.00,,,0.00,125,Wunderground v.1.15,2013-08-16 22:06:00,
2013-08-16 18:12:00,72.3,60.7,30.16,East,99,8.0,9.0,67,0.00,,,0.00,118,Wunderground v.1.15,2013-08-16 22:12:00,
2013-08-16 18:18:00,72.3,61.1,30.17,East,98,8.0,9.0,68,0.00,,,0.00,118,Wunderground v.1.15,2013-08-16 22:18:00,
2013-08-16 18:24:00,72.2,61.5,30.17,East,98,7.0,8.0,69,0.00,,,0.00,109,Wunderground v.1.15,2013-08-16 22:24:00,
2013-08-16 18:30:00,72.2,61.0,30.17,East,98,7.0,9.0,68,0.00,,,0.00,102,Wunderground v.1.15,2013-08-16 22:30:00,
2013-08-16 18:36:00,72.2,61.0,30.17,East,98,8.0,9.0,68,0.00,,,0.00,90,Wunderground v.1.15,2013-08-16 22:36:00,
2013-08-16 18:42:00,72.2,61.5,30.17,East,96,7.0,8.0,69,0.00,,,0.00,83,Wunderground v.1.15,2013-08-16 22:42:00,
2013-08-16 18:48:00,72.1,61.0,30.17,East,95,7.0,8.0,68,0.00,,,0.00,74,Wunderground v.1.15,2013-08-16 22:48:00,
2013-08-16 18:54:00,72.1,61.0,30.17,East,94,7.0,8.0,68,0.00,,,0.00,67,Wunderground v.1.15,2013-08-16 22:54:00,
2013-08-16 19:00:00,72.0,60.9,30.17,East,95,6.0,6.0,68,0.00,,,0.00,56,Wunderground v.1.15,2013-08-16 23:00:00,
2013-08-16 19:06:00,71.9,60.8,30.17,East,95,6.0,6.0,68,0.00,,,0.00,46,Wunderground v.1.15,2013-08-16 23:06:00,
2013-08-16 19:12:00,72.0,61.7,30.17,East,95,5.0,6.0,70,0.00,,,0.00,37,Wunderground v.1.15,2013-08-16 23:12:00,
2013-08-16 19:18:00,71.9,61.6,30.17,East,95,5.0,6.0,70,0.00,,,0.00,30,Wunderground v.1.15,2013-08-16 23:18:00,
2013-08-16 19:26:00,71.7,61.0,30.17,East,95,5.0,7.0,69,0.00,,,0.00,23,Wunderground v.1.15,2013-08-16 23:26:00,
2013-08-16 19:32:00,71.7,61.0,30.17,East,95,5.0,6.0,69,0.00,,,0.00,16,Wunderground v.1.15,2013-08-16 23:32:00,
2013-08-16 19:38:00,71.7,61.4,30.17,East,95,5.0,6.0,70,0.00,,,0.00,14,Wunderground v.1.15,2013-08-16 23:38:00,
2013-08-16 19:46:00,71.6,61.7,30.17,East,95,6.0,7.0,71,0.00,,,0.00,9,Wunderground v.1.15,2013-08-16 23:46:00,
2013-08-16 19:52:00,71.6,62.1,30.17,East,95,6.0,7.0,72,0.00,,,0.00,5,Wunderground v.1.15,2013-08-16 23:52:00,
2013-08-16 19:58:00,71.6,61.3,30.17,East,95,6.0,7.0,70,0.00,,,0.00,5,Wunderground v.1.15,2013-08-16 23:58:00,
2013-08-16 20:06:00,71.5,61.2,30.17,East,95,6.0,6.0,70,0.00,,,0.00,0,Wunderground v.1.15,2013-08-17 00:06:00,
2013-08-16 20:12:00,71.5,61.6,30.17,East,95,6.0,6.0,71,0.00,,,0.00,0,Wunderground v.1.15,2013-08-17 00:12:00,
2013-08-16 20:18:00,71.4,61.5,30.17,East,95,6.0,8.0,71,0.00,,,0.00,0,Wunderground v.1.15,2013-08-17 00:18:00,
2013-08-16 20:24:00,71.4,61.9,30.17,East,94,6.0,6.0,72,0.00,,,0.00,0,Wunderground v.1.15,2013-08-17 00:24:00,
2013-08-16 20:30:00,71.4,61.5,30.18,East,94,5.0,6.0,71,0.00,,,0.00,0,Wunderground v.1.15,2013-08-17 00:30:00,
2013-08-16 20:36:00,71.3,61.4,30.17,East,93,6.0,7.0,71,0.00,,,0.00,0,Wunderground v.1.15,2013-08-17 00:36:00,
2013-08-16 20:42:00,71.3,61.4,30.17,East,92,7.0,8.0,71,0.00,,,0.00,0,Wunderground v.1.15,2013-08-17 00:42:00,
2013-08-16 20:48:00,71.4,62.3,30.17,East,92,6.0,8.0,73,0.00,,,0.00,0,Wunderground v.1.15,2013-08-17 00:48:00,
2013-08-16 20:54:00,71.3,62.2,30.18,East,92,6.0,7.0,73,0.00,,,0.00,0,Wunderground v.1.15,2013-08-17 00:54:00,
2013-08-16 21:00:00,71.3,61.8,30.18,East,92,6.0,8.0,72,0.00,,,0.00,0,Wunderground v.1.15,2013-08-17 01:00:00,
2013-08-16 21:06:00,71.3,61.8,30.18,East,91,7.0,8.0,72,0.00,,,0.00,0,Wunderground v.1.15,2013-08-17 01:06:00,
2013-08-16 21:12:00,71.3,62.2,30.18,East,91,6.0,7.0,73,0.00,,,0.00,0,Wunderground v.1.15,2013-08-17 01:12:00,
2013-08-16 21:18:00,71.3,62.6,30.18,East,91,6.0,7.0,74,0.00,,,0.00,0,Wunderground v.1.15,2013-08-17 01:18:00,
2013-08-16 21:26:00,71.3,62.6,30.19,East,91,6.0,8.0,74,0.00,,,0.00,0,Wunderground v.1.15,2013-08-17 01:26:00,
2013-08-16 21:32:00,71.2,62.5,30.19,East,91,5.0,6.0,74,0.00,,,0.00,0,Wunderground v.1.15,2013-08-17 01:32:00,
2013-08-16 21:38:00,71.3,62.6,30.19,East,91,5.0,6.0,74,0.00,,,0.00,0,Wunderground v.1.15,2013-08-17 01:38:00,
2013-08-16 21:44:00,71.3,63.0,30.18,East,91,5.0,5.0,75,0.00,,,0.00,0,Wunderground v.1.15,2013-08-17 01:44:00,
2013-08-16 21:50:00,71.2,62.9,30.19,East,91,4.0,5.0,75,0.00,,,0.00,0,Wunderground v.1.15,2013-08-17 01:50:00,
2013-08-16 21:56:00,71.2,63.2,30.19,East,91,4.0,5.0,76,0.00,,,0.00,0,Wunderground v.1.15,2013-08-17 01:56:00,
2013-08-16 22:02:00,71.2,63.2,30.19,East,91,4.0,6.0,76,0.00,,,0.00,0,Wunderground v.1.15,2013-08-17 02:02:00,
2013-08-16 22:08:00,71.2,63.6,30.19,East,91,5.0,6.0,77,0.00,,,0.00,0,Wunderground v.1.15,2013-08-17 02:08:00,
2013-08-16 22:14:00,71.1,63.5,30.19,East,91,5.0,7.0,77,0.00,,,0.00,0,Wunderground v.1.15,2013-08-17 02:14:00,
2013-08-16 22:20:00,71.0,63.8,30.19,East,91,5.0,5.0,78,0.00,,,0.00,0,Wunderground v.1.15,2013-08-17 02:20:00,
2013-08-16 22:26:00,70.9,63.7,30.19,East,91,5.0,5.0,78,0.00,,,0.00,0,Wunderground v.1.15,2013-08-17 02:26:00,
2013-08-16 22:32:00,70.7,63.5,30.19,East,91,4.0,5.0,78,0.00,,,0.00,0,Wunderground v.1.15,2013-08-17 02:32:00,
2013-08-16 22:38:00,70.7,63.5,30.19,East,91,4.0,6.0,78,0.00,,,0.00,0,Wunderground v.1.15,2013-08-17 02:38:00,
2013-08-16 22:46:00,70.6,63.8,30.19,East,91,5.0,7.0,79,0.00,,,0.00,0,Wunderground v.1.15,2013-08-17 02:46:00,
2013-08-16 22:52:00,70.6,63.8,30.19,East,91,6.0,7.0,79,0.00,,,0.00,0,Wunderground v.1.15,2013-08-17 02:52:00,
2013-08-16 22:58:00,70.5,64.0,30.19,East,91,6.0,7.0,80,0.00,,,0.00,0,Wunderground v.1.15,2013-08-17 02:58:00,
2013-08-16 23:06:00,70.5,64.0,30.19,East,91,6.0,7.0,80,0.00,,,0.00,0,Wunderground v.1.15,2013-08-17 03:06:00,
2013-08-16 23:12:00,70.5,64.0,30.19,East,91,6.0,6.0,80,0.00,,,0.00,0,Wunderground v.1.15,2013-08-17 03:12:00,
2013-08-16 23:18:00,70.5,64.0,30.19,East,91,6.0,7.0,80,0.00,,,0.00,0,Wunderground v.1.15,2013-08-17 03:18:00,
2013-08-16 23:24:00,70.5,64.0,30.19,East,91,6.0,6.0,80,0.00,,,0.00,0,Wunderground v.1.15,2013-08-17 03:24:00,
2013-08-16 23:30:00,70.6,64.1,30.19,East,91,5.0,5.0,80,0.00,,,0.00,0,Wunderground v.1.15,2013-08-17 03:30:00,
2013-08-16 23:36:00,70.4,63.6,30.19,East,91,5.0,6.0,79,0.00,,,0.00,0,Wunderground v.1.15,2013-08-17 03:36:00,
2013-08-16 23:42:00,70.4,63.9,30.19,East,91,4.0,8.0,80,0.00,,,0.00,0,Wunderground v.1.15,2013-08-17 03:42:00,
2013-08-16 23:48:00,70.3,63.8,30.20,East,91,4.0,8.0,80,0.00,,,0.00,0,Wunderground v.1.15,2013-08-17 03:48:00,
2013-08-16 23:54:00,70.3,63.8,30.20,East,91,4.0,8.0,80,0.00,,,0.00,0,Wunderground v.1.15,2013-08-17 03:54:00,